Time;durP1;ratioP1;P1;durP2;ratioP2;P2;SDS_P1;SDS_P2;PMS_P1;PMS_P2;Temp;Humidity;BMP_temperature;BMP_pressure;BME280_temperature;BME280_humidity;BME280_pressure;Samples;Min_cycle;Max_cycle;Signal;HPM_P1;HPM_P2
2021/07/07 00:01:17;;;;;;;1.30;1.20;;;16.50;94.00;;;;;;5029802;28;20461;-79
2021/07/07 00:03:45;;;;;;;1.77;1.10;;;16.50;93.60;;;;;;5030155;28;20452;-78
2021/07/07 00:06:12;;;;;;;1.67;1.10;;;16.50;93.40;;;;;;5029750;28;20488;-79
2021/07/07 00:08:39;;;;;;;1.43;1.00;;;16.50;93.30;;;;;;5029917;28;20512;-77
2021/07/07 00:11:06;;;;;;;1.27;1.17;;;16.50;93.50;;;;;;5028245;28;20469;-78
2021/07/07 00:13:33;;;;;;;1.50;1.40;;;16.60;93.50;;;;;;5027406;28;20485;-78
2021/07/07 00:16:00;;;;;;;1.33;1.23;;;16.60;92.80;;;;;;5026608;28;20489;-79
2021/07/07 00:18:30;;;;;;;1.43;1.20;;;16.60;93.10;;;;;;5027629;28;20473;-79
2021/07/07 00:20:58;;;;;;;3.90;1.80;;;16.60;93.00;;;;;;5029365;28;20456;-78
2021/07/07 00:23:26;;;;;;;1.57;1.23;;;16.60;93.30;;;;;;5029009;28;20486;-78
2021/07/07 00:25:57;;;;;;;4.73;1.30;;;16.50;93.60;;;;;;5026505;28;20452;-77
2021/07/07 00:28:25;;;;;;;1.50;1.40;;;16.60;93.70;;;;;;5024312;28;20489;-78
2021/07/07 00:30:53;;;;;;;2.00;1.37;;;16.60;93.40;;;;;;5016332;28;20471;-78
2021/07/07 00:33:21;;;;;;;2.40;1.20;;;16.70;93.30;;;;;;5019369;28;20555;-78
2021/07/07 00:35:48;;;;;;;2.17;1.40;;;16.60;93.40;;;;;;5020085;28;20463;-78
2021/07/07 00:38:16;;;;;;;4.10;1.53;;;16.60;93.50;;;;;;5019118;28;20505;-78
2021/07/07 00:40:44;;;;;;;1.37;1.27;;;16.50;94.00;;;;;;5018783;28;20541;-78
2021/07/07 00:43:13;;;;;;;2.47;1.20;;;16.50;94.00;;;;;;5018201;28;20454;-78
2021/07/07 00:45:40;;;;;;;2.10;1.43;;;16.60;94.00;;;;;;5018045;28;20551;-78
2021/07/07 00:48:07;;;;;;;1.20;1.10;;;16.50;94.00;;;;;;5018825;28;20941;-78
2021/07/07 00:50:34;;;;;;;2.17;1.70;;;16.50;94.00;;;;;;5016960;28;20953;-78
2021/07/07 00:53:01;;;;;;;5.43;1.50;;;16.50;94.00;;;;;;5023081;28;20450;-78
2021/07/07 00:55:30;;;;;;;3.00;1.47;;;16.50;94.00;;;;;;5019244;28;20484;-77
2021/07/07 00:57:58;;;;;;;1.80;1.23;;;16.40;94.80;;;;;;5018345;28;20480;-78
2021/07/07 01:00:26;;;;;;;1.30;1.20;;;16.50;94.90;;;;;;5025761;28;20456;-78
2021/07/07 01:02:55;;;;;;;2.50;1.30;;;16.30;95.60;;;;;;5017057;28;20475;-78
2021/07/07 01:05:22;;;;;;;1.20;1.10;;;16.30;96.00;;;;;;5015972;28;20455;-79
2021/07/07 01:07:49;;;;;;;1.43;1.33;;;16.40;95.90;;;;;;5016238;28;20506;-78
2021/07/07 01:10:17;;;;;;;1.20;1.10;;;16.40;95.80;;;;;;5020685;28;20456;-78
2021/07/07 01:12:46;;;;;;;3.13;1.40;;;16.40;95.80;;;;;;5023042;28;20487;-79
2021/07/07 01:15:15;;;;;;;3.00;1.83;;;16.40;96.10;;;;;;5025825;28;20491;-78
2021/07/07 01:17:42;;;;;;;1.77;1.13;;;16.30;95.90;;;;;;5022372;28;20472;-79
2021/07/07 01:20:12;;;;;;;1.33;1.10;;;16.30;96.00;;;;;;5027887;28;20499;-80
2021/07/07 01:22:41;;;;;;;1.37;1.20;;;16.30;96.10;;;;;;5028255;28;20663;-80
2021/07/07 01:25:10;;;;;;;4.33;1.60;;;16.30;96.00;;;;;;5027997;28;20776;-80
2021/07/07 01:27:40;;;;;;;1.87;1.13;;;16.20;95.70;;;;;;5027040;28;20523;-79
2021/07/07 01:30:09;;;;;;;1.87;1.60;;;16.30;95.90;;;;;;5026287;28;20467;-81
2021/07/07 01:32:36;;;;;;;0.93;0.93;;;16.30;95.60;;;;;;5028158;28;20462;-80
2021/07/07 01:35:03;;;;;;;2.20;1.20;;;16.30;95.30;;;;;;5027603;28;20462;-80
2021/07/07 01:37:30;;;;;;;2.00;1.10;;;16.30;95.00;;;;;;5028325;28;20483;-81
2021/07/07 01:39:58;;;;;;;1.43;1.33;;;16.30;95.00;;;;;;5024713;28;20453;-79
2021/07/07 01:42:25;;;;;;;2.37;1.53;;;16.30;95.60;;;;;;5025893;28;20529;-79
2021/07/07 01:44:52;;;;;;;1.30;1.23;;;16.20;95.50;;;;;;5026179;28;20476;-80
2021/07/07 01:47:19;;;;;;;3.03;1.47;;;16.30;95.30;;;;;;5028126;28;20494;-80
2021/07/07 01:49:46;;;;;;;2.30;1.30;;;16.30;95.20;;;;;;5027127;28;20448;-81
2021/07/07 01:52:13;;;;;;;2.10;1.27;;;16.30;95.30;;;;;;5028718;28;20456;-81
2021/07/07 01:54:39;;;;;;;1.67;1.23;;;16.40;94.80;;;;;;5027167;28;20473;-81
2021/07/07 01:57:08;;;;;;;1.30;1.10;;;16.40;94.50;;;;;;5028769;28;20811;-79
2021/07/07 01:59:35;;;;;;;1.20;1.10;;;16.30;94.80;;;;;;5030191;28;20503;-80
2021/07/07 02:02:02;;;;;;;3.58;1.75;;;16.30;95.00;;;;;;5032445;28;20441;-78
2021/07/07 02:04:29;;;;;;;1.70;1.23;;;16.30;94.90;;;;;;5032272;28;20539;-79
2021/07/07 02:06:56;;;;;;;1.03;0.90;;;16.30;95.20;;;;;;5029977;28;20456;-78
2021/07/07 02:09:23;;;;;;;1.90;1.50;;;16.30;95.20;;;;;;5028494;28;20484;-77
2021/07/07 02:11:50;;;;;;;1.20;1.10;;;16.30;95.00;;;;;;5029143;28;20443;-79
2021/07/07 02:14:18;;;;;;;1.97;1.40;;;16.30;94.60;;;;;;5028976;28;20456;-78
2021/07/07 02:16:45;;;;;;;2.40;1.40;;;16.30;94.50;;;;;;5031525;28;20468;-79
2021/07/07 02:19:12;;;;;;;1.30;1.20;;;16.30;94.70;;;;;;5030484;28;20480;-78
2021/07/07 02:21:39;;;;;;;1.77;1.50;;;16.30;95.00;;;;;;5028416;28;20464;-79
2021/07/07 02:24:07;;;;;;;1.50;1.30;;;16.30;94.70;;;;;;5027261;28;20464;-79
2021/07/07 02:26:34;;;;;;;1.30;1.00;;;16.30;94.80;;;;;;5030120;28;20479;-78
2021/07/07 02:29:01;;;;;;;1.77;1.03;;;16.30;95.10;;;;;;5029983;28;20530;-80
2021/07/07 02:31:29;;;;;;;2.20;1.23;;;16.20;94.90;;;;;;5030104;28;20461;-79
2021/07/07 02:33:56;;;;;;;1.00;1.00;;;16.20;94.40;;;;;;5027016;28;20441;-78
2021/07/07 02:36:23;;;;;;;1.35;1.20;;;16.20;94.60;;;;;;5029887;28;20437;-79
2021/07/07 02:38:50;;;;;;;2.10;1.00;;;16.20;94.80;;;;;;5028743;28;20246;-80
2021/07/07 02:41:17;;;;;;;1.63;1.20;;;16.20;95.40;;;;;;5030414;28;20447;-80
2021/07/07 02:43:44;;;;;;;1.30;1.20;;;16.10;95.60;;;;;;5030249;28;20450;-79
2021/07/07 02:46:12;;;;;;;1.80;1.23;;;16.00;94.90;;;;;;5029266;28;20870;-80
2021/07/07 02:48:40;;;;;;;5.00;1.83;;;16.00;95.20;;;;;;5032675;28;20503;-79
2021/07/07 02:51:07;;;;;;;1.40;1.30;;;16.00;95.60;;;;;;5033724;28;20469;-79
2021/07/07 02:53:34;;;;;;;3.20;1.50;;;16.00;95.90;;;;;;5032084;28;20688;-79
2021/07/07 02:56:01;;;;;;;1.93;1.37;;;16.10;95.60;;;;;;5033205;28;20461;-79
2021/07/07 02:58:28;;;;;;;1.63;1.52;;;16.10;95.40;;;;;;5029423;28;20487;-79
2021/07/07 03:00:55;;;;;;;1.50;1.10;;;16.10;95.20;;;;;;5031954;28;20209;-80
2021/07/07 03:03:24;;;;;;;2.73;1.70;;;16.00;95.20;;;;;;5033372;28;20459;-79
2021/07/07 03:05:54;;;;;;;2.30;1.43;;;16.00;95.60;;;;;;5034962;28;20949;-80
2021/07/07 03:08:21;;;;;;;3.00;1.57;;;16.00;95.60;;;;;;5032621;28;20487;-79
2021/07/07 03:10:49;;;;;;;2.23;1.50;;;16.00;95.80;;;;;;5033048;28;20491;-79
2021/07/07 03:13:20;;;;;;;3.67;1.20;;;15.90;95.80;;;;;;5033691;28;20448;-80
2021/07/07 03:15:48;;;;;;;4.03;1.63;;;16.00;96.10;;;;;;5033825;28;20224;-80
2021/07/07 03:18:16;;;;;;;1.80;1.70;;;15.90;96.30;;;;;;5035921;28;20476;-78
2021/07/07 03:20:45;;;;;;;5.80;1.90;;;15.90;96.50;;;;;;5038405;28;20464;-79
2021/07/07 03:23:16;;;;;;;2.00;1.70;;;16.00;96.50;;;;;;5037537;28;20441;-78
2021/07/07 03:25:43;;;;;;;2.57;1.30;;;15.90;96.90;;;;;;5035989;28;20447;-79
2021/07/07 03:28:10;;;;;;;3.05;1.58;;;15.90;97.30;;;;;;5035374;28;20536;-78
2021/07/07 03:30:38;;;;;;;5.75;1.88;;;15.90;97.30;;;;;;5035370;28;20213;-79
2021/07/07 03:33:06;;;;;;;4.30;1.95;;;15.90;97.30;;;;;;5035721;28;20187;-81
2021/07/07 03:35:33;;;;;;;1.67;1.57;;;15.90;97.30;;;;;;5035908;28;20210;-81
2021/07/07 03:38:00;;;;;;;2.05;1.60;;;15.90;97.30;;;;;;5035500;28;20427;-79
2021/07/07 03:40:31;;;;;;;1.98;1.63;;;15.90;98.00;;;;;;5033321;28;20208;-80
2021/07/07 03:42:59;;;;;;;3.63;1.87;;;15.90;98.00;;;;;;5033682;28;20220;-80
2021/07/07 03:45:27;;;;;;;1.70;1.60;;;15.90;98.00;;;;;;5031745;28;20449;-79
2021/07/07 03:47:54;;;;;;;3.60;1.83;;;15.80;97.70;;;;;;5025163;28;20520;-78
2021/07/07 03:50:22;;;;;;;2.00;1.90;;;15.80;98.10;;;;;;5015171;28;20458;-78
2021/07/07 03:52:49;;;;;;;2.88;2.40;;;15.80;98.00;;;;;;5019884;28;20459;-78
2021/07/07 03:55:18;;;;;;;3.20;1.87;;;15.80;98.20;;;;;;5036296;28;20212;-80
2021/07/07 03:57:47;;;;;;;2.63;2.23;;;15.70;98.40;;;;;;5036063;28;20483;-80
2021/07/07 04:00:16;;;;;;;2.58;1.70;;;15.70;98.60;;;;;;5036313;28;20889;-78
2021/07/07 04:02:44;;;;;;;4.40;1.90;;;15.70;98.40;;;;;;5035812;28;20200;-80
2021/07/07 04:05:12;;;;;;;3.53;1.75;;;15.70;98.30;;;;;;5036109;28;20498;-79
2021/07/07 04:07:39;;;;;;;5.53;2.25;;;15.70;98.60;;;;;;5031413;28;20231;-80
2021/07/07 04:10:07;;;;;;;4.05;2.00;;;15.80;98.60;;;;;;5026920;28;20448;-78
2021/07/07 04:12:35;;;;;;;1.80;1.70;;;15.80;98.10;;;;;;5027237;28;20277;-82
2021/07/07 04:15:04;;;;;;;1.50;1.40;;;15.80;98.10;;;;;;5027023;28;20481;-80
2021/07/07 04:17:31;;;;;;;2.10;1.90;;;15.80;98.20;;;;;;5027626;28;20471;-80
2021/07/07 04:19:58;;;;;;;2.30;1.57;;;15.90;97.80;;;;;;5031027;28;20217;-81
2021/07/07 04:22:25;;;;;;;2.10;1.97;;;15.90;97.70;;;;;;5029862;28;20464;-81
2021/07/07 04:24:52;;;;;;;7.07;2.43;;;16.00;97.40;;;;;;5030181;28;20523;-80
2021/07/07 04:27:19;;;;;;;7.90;1.90;;;16.00;96.70;;;;;;5030846;28;20439;-78
2021/07/07 04:29:46;;;;;;;4.40;2.10;;;16.00;96.90;;;;;;5033945;28;20240;-80
2021/07/07 04:32:16;;;;;;;2.80;2.37;;;16.00;96.30;;;;;;5034318;28;20430;-79
2021/07/07 04:34:43;;;;;;;2.10;1.60;;;15.90;96.60;;;;;;5031669;28;20515;-79
2021/07/07 04:37:10;;;;;;;1.70;1.60;;;16.00;97.00;;;;;;5027172;28;20453;-79
2021/07/07 04:39:37;;;;;;;2.40;1.73;;;16.10;96.50;;;;;;5032353;28;20471;-80
2021/07/07 04:42:04;;;;;;;2.40;2.20;;;16.20;95.90;;;;;;5034681;28;20464;-79
2021/07/07 04:44:31;;;;;;;5.20;2.20;;;16.20;94.70;;;;;;5028131;28;20452;-79
2021/07/07 04:46:59;;;;;;;2.10;1.70;;;16.20;94.80;;;;;;5023505;28;20493;-78
2021/07/07 04:49:28;;;;;;;3.13;1.90;;;16.20;94.80;;;;;;5024791;28;20578;-79
2021/07/07 04:51:55;;;;;;;2.20;1.60;;;16.30;94.40;;;;;;5030327;28;20441;-79
2021/07/07 04:54:22;;;;;;;1.80;1.70;;;16.30;93.90;;;;;;5032860;28;20485;-79
2021/07/07 04:56:48;;;;;;;3.10;2.10;;;16.40;93.90;;;;;;5033921;28;20218;-79
2021/07/07 04:59:15;;;;;;;1.90;1.80;;;16.60;93.70;;;;;;5030359;28;20473;-79
2021/07/07 05:01:42;;;;;;;2.53;1.70;;;16.70;92.80;;;;;;5031572;28;20493;-79
2021/07/07 05:04:09;;;;;;;3.00;1.90;;;16.80;92.00;;;;;;5023382;28;20529;-79
2021/07/07 05:06:38;;;;;;;2.50;1.73;;;16.90;91.00;;;;;;5022047;28;20484;-77
2021/07/07 05:09:05;;;;;;;4.73;2.20;;;17.00;90.50;;;;;;5019606;28;20496;-79
2021/07/07 05:11:32;;;;;;;3.90;2.13;;;17.00;90.30;;;;;;5019090;28;20962;-79
2021/07/07 05:13:59;;;;;;;4.80;2.17;;;16.90;90.40;;;;;;5024682;28;20516;-79
2021/07/07 05:16:26;;;;;;;5.33;2.03;;;16.90;90.40;;;;;;5024782;28;20489;-79
2021/07/07 05:18:53;;;;;;;2.80;2.53;;;16.90;90.40;;;;;;5024858;28;20493;-79
2021/07/07 05:21:19;;;;;;;2.17;1.83;;;16.80;90.60;;;;;;5023187;28;20477;-79
2021/07/07 05:23:48;;;;;;;1.97;1.87;;;16.70;90.50;;;;;;5036682;28;20448;-79
2021/07/07 05:26:15;;;;;;;2.20;1.77;;;16.60;91.60;;;;;;5036793;28;20448;-79
2021/07/07 05:28:41;;;;;;;6.33;1.93;;;16.60;92.30;;;;;;5028047;28;20493;-78
2021/07/07 05:31:09;;;;;;;2.53;1.90;;;16.60;92.50;;;;;;5021149;28;21006;-79
2021/07/07 05:33:37;;;;;;;10.27;2.57;;;16.60;93.00;;;;;;5024825;28;20464;-79
2021/07/07 05:36:06;;;;;;;4.60;2.20;;;16.60;93.40;;;;;;5021336;28;20880;-79
2021/07/07 05:38:32;;;;;;;2.47;2.27;;;16.50;92.40;;;;;;5022860;28;20483;-79
2021/07/07 05:41:01;;;;;;;1.93;1.83;;;16.50;92.80;;;;;;5020735;28;20492;-78
2021/07/07 05:43:28;;;;;;;3.17;2.53;;;16.50;93.30;;;;;;5017284;28;20441;-78
2021/07/07 05:45:57;;;;;;;8.27;2.08;;;16.60;93.50;;;;;;5019282;28;20528;-80
2021/07/07 05:48:25;;;;;;;2.63;2.07;;;16.60;92.20;;;;;;5030843;28;20708;-80
2021/07/07 05:50:53;;;;;;;2.90;2.30;;;16.70;91.40;;;;;;5029797;28;20468;-79
2021/07/07 05:53:20;;;;;;;1.50;1.40;;;16.70;91.30;;;;;;5023977;28;20460;-80
2021/07/07 05:55:47;;;;;;;3.13;1.80;;;16.70;90.40;;;;;;5024014;28;20472;-82
2021/07/07 05:58:15;;;;;;;3.90;2.20;;;16.30;92.30;;;;;;5020494;28;20484;-79
2021/07/07 06:00:42;;;;;;;6.90;2.63;;;16.30;93.90;;;;;;5020393;28;20458;-80
2021/07/07 06:03:11;;;;;;;3.87;2.00;;;16.40;93.90;;;;;;5017316;28;20491;-79
2021/07/07 06:05:38;;;;;;;2.90;2.40;;;16.40;94.20;;;;;;5017911;28;20514;-79
2021/07/07 06:08:06;;;;;;;3.30;1.90;;;16.50;94.00;;;;;;5018818;28;20477;-78
2021/07/07 06:10:33;;;;;;;2.53;2.33;;;16.60;94.00;;;;;;5017933;28;20469;-78
2021/07/07 06:13:00;;;;;;;3.70;2.20;;;16.80;93.40;;;;;;5016741;28;20888;-79
2021/07/07 06:15:31;;;;;;;2.23;2.00;;;16.90;92.10;;;;;;5020607;28;20466;-78
2021/07/07 06:17:59;;;;;;;2.77;2.00;;;17.20;91.10;;;;;;5017469;28;20481;-78
2021/07/07 06:20:26;;;;;;;8.60;2.20;;;17.40;90.00;;;;;;5021405;28;20568;-79
2021/07/07 06:22:53;;;;;;;3.80;2.10;;;17.60;88.50;;;;;;5022781;28;20541;-78
2021/07/07 06:25:20;;;;;;;3.17;1.77;;;17.60;82.20;;;;;;5019276;28;20483;-78
2021/07/07 06:27:47;;;;;;;4.40;3.47;;;17.70;82.90;;;;;;5017811;28;20495;-79
2021/07/07 06:30:18;;;;;;;5.13;2.20;;;17.90;81.10;;;;;;5017240;28;20503;-78
2021/07/07 06:32:47;;;;;;;2.97;1.87;;;18.10;78.20;;;;;;5016874;28;20459;-78
2021/07/07 06:35:15;;;;;;;3.43;2.20;;;18.30;77.20;;;;;;5017384;28;20524;-78
2021/07/07 06:37:43;;;;;;;4.50;2.30;;;18.50;75.40;;;;;;5017338;28;21061;-78
2021/07/07 06:40:10;;;;;;;4.40;2.17;;;18.70;73.20;;;;;;5016858;28;20466;-78
2021/07/07 06:42:37;;;;;;;6.40;2.40;;;18.60;72.00;;;;;;5019365;28;20457;-77
2021/07/07 06:45:06;;;;;;;2.83;2.63;;;18.70;72.00;;;;;;5021963;28;20483;-77
2021/07/07 06:47:33;;;;;;;10.90;2.43;;;18.50;72.20;;;;;;5021134;28;20504;-80
2021/07/07 06:50:01;;;;;;;6.40;2.57;;;18.60;72.60;;;;;;5021352;28;20493;-79
2021/07/07 06:52:29;;;;;;;2.70;1.77;;;18.70;71.10;;;;;;5029092;28;20450;-80
2021/07/07 06:54:56;;;;;;;6.80;2.43;;;18.80;70.80;;;;;;5032049;28;20455;-80
2021/07/07 06:57:23;;;;;;;5.17;2.50;;;18.60;72.20;;;;;;5033290;28;20464;-81
2021/07/07 06:59:50;;;;;;;3.00;2.50;;;18.70;72.10;;;;;;5038395;28;20485;-80
2021/07/07 07:02:17;;;;;;;6.10;2.17;;;18.90;71.50;;;;;;5032007;28;20925;-79
2021/07/07 07:04:44;;;;;;;2.00;1.90;;;18.90;70.40;;;;;;5026137;28;20574;-80
2021/07/07 07:07:12;;;;;;;7.70;2.30;;;18.80;70.40;;;;;;5024814;28;20459;-79
2021/07/07 07:09:39;;;;;;;4.00;2.27;;;18.70;71.60;;;;;;5024656;28;20510;-80
2021/07/07 07:12:06;;;;;;;8.00;2.97;;;19.00;71.00;;;;;;5025150;28;20458;-79
2021/07/07 07:14:33;;;;;;;5.77;2.57;;;19.30;69.90;;;;;;5026060;28;20429;-81
2021/07/07 07:17:00;;;;;;;3.67;2.27;;;19.30;69.10;;;;;;5030491;28;20923;-79
2021/07/07 07:19:27;;;;;;;8.60;2.40;;;19.30;67.10;;;;;;5031283;28;20477;-80
2021/07/07 07:21:54;;;;;;;6.10;2.40;;;19.40;68.10;;;;;;5032092;28;20458;-80
2021/07/07 07:24:22;;;;;;;7.00;2.20;;;19.40;67.20;;;;;;5028659;28;20481;-80
2021/07/07 07:26:49;;;;;;;3.13;1.83;;;19.30;67.40;;;;;;5028167;28;20485;-79
2021/07/07 07:29:16;;;;;;;2.43;1.70;;;19.20;68.60;;;;;;5025103;28;20552;-79
2021/07/07 07:31:43;;;;;;;4.00;2.40;;;19.30;69.40;;;;;;5018412;28;20536;-79
2021/07/07 07:34:10;;;;;;;2.10;1.80;;;19.30;69.80;;;;;;5020807;28;20454;-80
2021/07/07 07:36:37;;;;;;;2.43;2.13;;;19.40;69.50;;;;;;5020342;28;20467;-80
2021/07/07 07:39:14;;;;;;;2.70;2.33;;;19.50;69.50;;;;;;5021287;28;20479;-79
2021/07/07 07:41:43;;;;;;;4.43;2.17;;;19.50;69.70;;;;;;5020678;28;20469;-79
2021/07/07 07:44:10;;;;;;;3.20;2.20;;;19.70;69.70;;;;;;5016934;28;20502;-81
2021/07/07 07:46:38;;;;;;;4.50;2.33;;;19.70;68.30;;;;;;5021565;28;20462;-80
2021/07/07 07:49:06;;;;;;;3.20;2.60;;;19.80;69.40;;;;;;5027755;28;20495;-79
2021/07/07 07:51:33;;;;;;;1.93;1.80;;;19.90;67.70;;;;;;5028256;28;20509;-81
2021/07/07 07:54:00;;;;;;;4.53;2.67;;;20.00;67.80;;;;;;5029920;28;20931;-80
2021/07/07 07:56:28;;;;;;;2.63;1.97;;;20.40;67.30;;;;;;5029143;28;20572;-80
2021/07/07 07:58:59;;;;;;;2.33;2.13;;;20.80;64.50;;;;;;5044088;23;20518;-78
2021/07/07 08:01:40;;;;;;;;;;;;;;;;;;;;;
2021/07/07 08:04:08;;;;;;;2.93;1.70;;;20.70;62.40;;;;;;5016175;28;20940;-79
2021/07/07 08:06:35;;;;;;;2.20;1.30;;;20.90;61.50;;;;;;5015961;28;20496;-77
2021/07/07 08:09:03;;;;;;;5.30;1.60;;;21.10;59.60;;;;;;5015523;28;20466;-79
2021/07/07 08:11:30;;;;;;;4.97;2.20;;;21.10;59.60;;;;;;5015320;28;20518;-78
2021/07/07 08:13:58;;;;;;;2.37;1.60;;;21.30;58.60;;;;;;5015203;28;21047;-78
2021/07/07 08:16:25;;;;;;;2.30;1.20;;;21.20;58.90;;;;;;5015425;28;20487;-78
2021/07/07 08:18:52;;;;;;;1.60;1.50;;;21.30;59.80;;;;;;5015447;28;20441;-77
2021/07/07 08:21:19;;;;;;;2.33;1.90;;;21.40;58.40;;;;;;5017408;28;20543;-77
2021/07/07 08:23:46;;;;;;;2.70;1.50;;;21.40;58.70;;;;;;5019877;28;20457;-78
2021/07/07 08:26:14;;;;;;;2.63;1.60;;;21.50;58.40;;;;;;5024640;28;20463;-78
2021/07/07 08:28:44;;;;;;;1.90;1.43;;;21.60;56.00;;;;;;5024896;28;20488;-77
2021/07/07 08:31:33;;;;;;;1.77;1.30;;;21.70;56.30;;;;;;5019424;28;20439;-79
2021/07/07 08:34:07;;;;;;;2.23;1.20;;;21.80;54.20;;;;;;5016011;28;20533;-78
2021/07/07 08:36:49;;;;;;;1.23;0.90;;;21.50;55.30;;;;;;5015790;28;20980;-80
2021/07/07 08:39:29;;;;;;;1.33;1.23;;;21.50;54.70;;;;;;5015265;28;20488;-78
2021/07/07 08:41:56;;;;;;;1.40;1.10;;;21.40;55.40;;;;;;5015090;28;20497;-78
2021/07/07 08:44:24;;;;;;;1.97;1.50;;;21.60;54.20;;;;;;5014475;28;20457;-78
2021/07/07 08:46:53;;;;;;;3.97;1.20;;;21.50;55.40;;;;;;5014234;28;20862;-77
2021/07/07 08:49:21;;;;;;;2.80;1.40;;;21.50;54.00;;;;;;5020867;28;20544;-79
2021/07/07 08:51:48;;;;;;;4.83;1.53;;;21.70;53.80;;;;;;5032308;28;20458;-78
2021/07/07 08:54:16;;;;;;;1.93;1.10;;;21.70;54.10;;;;;;5029304;28;20507;-77
2021/07/07 08:56:43;;;;;;;2.30;1.20;;;21.90;52.80;;;;;;5024350;28;20460;-78
2021/07/07 08:59:11;;;;;;;1.83;1.23;;;21.90;50.60;;;;;;5019397;28;20487;-78
2021/07/07 09:02:08;;;;;;;1.80;1.20;;;21.70;50.50;;;;;;5015921;28;20452;-78
2021/07/07 09:04:39;;;;;;;4.13;1.10;;;21.60;50.40;;;;;;5015744;28;20489;-78
2021/07/07 09:07:08;;;;;;;3.30;1.23;;;21.30;51.40;;;;;;5016835;28;20444;-78
2021/07/07 09:09:45;;;;;;;5.37;1.23;;;21.50;51.10;;;;;;5015799;28;20563;-79
2021/07/07 09:12:18;;;;;;;2.60;1.07;;;21.70;50.50;;;;;;5017926;28;20967;-79
2021/07/07 09:14:47;;;;;;;1.80;1.27;;;21.90;49.60;;;;;;5018817;28;20466;-79
2021/07/07 09:17:18;;;;;;;2.30;1.40;;;22.20;49.10;;;;;;5020491;28;20814;-78
2021/07/07 09:19:45;;;;;;;4.83;1.10;;;22.60;48.50;;;;;;5017817;28;20481;-77
2021/07/07 09:22:14;;;;;;;3.50;1.30;;;22.90;45.90;;;;;;5020807;28;20489;-78
2021/07/07 09:24:43;;;;;;;3.57;1.20;;;22.70;47.70;;;;;;5025645;28;20439;-79
2021/07/07 09:27:13;;;;;;;3.57;1.43;;;22.40;48.00;;;;;;5035583;28;20463;-78
2021/07/07 09:29:44;;;;;;;2.03;1.10;;;22.30;47.20;;;;;;5029105;28;20485;-78
2021/07/07 09:32:18;;;;;;;2.17;0.90;;;22.20;48.10;;;;;;5037633;28;20457;-79
2021/07/07 09:34:48;;;;;;;2.23;1.27;;;22.30;47.50;;;;;;5020479;28;20541;-78
2021/07/07 09:37:23;;;;;;;2.10;1.10;;;22.30;49.30;;;;;;5014613;28;20466;-79
2021/07/07 09:39:51;;;;;;;3.23;1.40;;;22.70;49.10;;;;;;5014806;28;20500;-77
2021/07/07 09:42:26;;;;;;;1.60;1.40;;;22.60;49.50;;;;;;5014432;28;20846;-78
2021/07/07 09:44:55;;;;;;;3.70;1.40;;;22.60;48.70;;;;;;5014180;28;20880;-78
2021/07/07 09:47:23;;;;;;;5.60;1.33;;;22.90;48.20;;;;;;5014920;28;20462;-77
2021/07/07 09:49:51;;;;;;;0.93;0.90;;;23.20;47.90;;;;;;5021888;28;20549;-78
2021/07/07 09:52:23;;;;;;;4.87;1.47;;;23.30;47.20;;;;;;5026190;28;20469;-77
2021/07/07 09:54:50;;;;;;;2.03;1.50;;;23.10;47.80;;;;;;5023267;28;20807;-78
2021/07/07 09:57:19;;;;;;;4.87;1.20;;;23.20;47.50;;;;;;5019093;28;20451;-78
2021/07/07 09:59:46;;;;;;;1.43;1.20;;;23.40;45.40;;;;;;5023820;28;20597;-79
2021/07/07 10:02:14;;;;;;;1.43;1.33;;;22.30;49.20;;;;;;5017963;28;20497;-78
2021/07/07 10:04:45;;;;;;;1.70;1.43;;;22.50;48.20;;;;;;5017128;28;20965;-78
2021/07/07 10:07:13;;;;;;;1.90;1.37;;;22.30;48.90;;;;;;5017646;28;20505;-78
2021/07/07 10:09:44;;;;;;;1.90;1.40;;;22.60;47.60;;;;;;5018156;28;20526;-78
2021/07/07 10:12:12;;;;;;;2.27;1.50;;;22.70;48.20;;;;;;5017842;28;20472;-78
2021/07/07 10:14:39;;;;;;;3.07;1.40;;;23.20;47.50;;;;;;5020687;28;20461;-78
2021/07/07 10:17:06;;;;;;;4.57;2.00;;;23.60;46.10;;;;;;5017475;28;20539;-78
2021/07/07 10:19:34;;;;;;;5.40;1.23;;;23.80;45.00;;;;;;5016916;28;20564;-78
2021/07/07 10:22:03;;;;;;;3.47;1.23;;;23.90;43.00;;;;;;5017718;28;20432;-78
2021/07/07 10:24:32;;;;;;;4.10;1.30;;;24.20;42.70;;;;;;5017852;28;20493;-78
2021/07/07 10:27:00;;;;;;;1.50;1.30;;;24.50;42.00;;;;;;5017900;28;20474;-78
2021/07/07 10:29:28;;;;;;;3.20;1.13;;;24.60;41.60;;;;;;5017433;28;20486;-77
2021/07/07 10:31:57;;;;;;;3.13;1.40;;;24.90;41.10;;;;;;5017380;28;20486;-78
2021/07/07 10:34:27;;;;;;;1.60;1.40;;;25.10;39.70;;;;;;5017239;28;20527;-78
2021/07/07 10:36:55;;;;;;;1.30;1.10;;;25.20;39.50;;;;;;5017654;28;20525;-78
2021/07/07 10:39:25;;;;;;;2.43;1.60;;;25.30;38.80;;;;;;5017163;28;20478;-77
2021/07/07 10:41:57;;;;;;;2.50;1.50;;;25.10;39.80;;;;;;5017595;28;20460;-78
2021/07/07 10:44:54;;;;;;;5.33;2.10;;;25.30;39.50;;;;;;5020435;28;20463;-78
2021/07/07 10:47:36;;;;;;;2.27;1.20;;;24.80;40.10;;;;;;4957719;28;20521;-78
2021/07/07 10:50:04;;;;;;;2.23;1.37;;;24.10;40.30;;;;;;5008907;28;20456;-77
2021/07/07 10:52:38;;;;;;;3.17;1.30;;;23.80;42.30;;;;;;5018076;28;20472;-78
2021/07/07 10:55:11;;;;;;;3.83;1.40;;;24.20;41.80;;;;;;5019476;28;20452;-77
2021/07/07 10:57:39;;;;;;;3.10;1.53;;;23.90;41.40;;;;;;5031277;28;20454;-77
2021/07/07 11:00:10;;;;;;;1.70;1.40;;;24.40;40.90;;;;;;5021488;28;21025;-78
2021/07/07 11:02:37;;;;;;;4.37;1.50;;;23.40;41.40;;;;;;5021453;28;20898;-77
2021/07/07 11:05:07;;;;;;;2.63;1.53;;;23.50;42.10;;;;;;5019887;28;20462;-77
2021/07/07 11:07:40;;;;;;;5.30;1.30;;;23.20;41.80;;;;;;5019235;28;20512;-77
2021/07/07 11:10:12;;;;;;;1.43;1.13;;;23.60;41.50;;;;;;5020941;28;20535;-77
2021/07/07 11:13:14;;;;;;;3.70;1.30;;;24.30;40.20;;;;;;5020195;28;20463;-78
2021/07/07 11:15:43;;;;;;;2.90;1.30;;;25.10;38.10;;;;;;5020105;28;20448;-77
2021/07/07 11:18:21;;;;;;;3.33;1.50;;;25.20;37.90;;;;;;5019314;28;20546;-76
2021/07/07 11:21:07;;;;;;;2.50;1.40;;;24.70;39.60;;;;;;5017847;28;20463;-77
2021/07/07 11:23:40;;;;;;;8.53;1.40;;;25.10;36.80;;;;;;5016323;28;20502;-78
2021/07/07 11:26:09;;;;;;;3.20;1.40;;;25.30;38.10;;;;;;5016056;28;20464;-78
2021/07/07 11:28:38;;;;;;;2.10;1.33;;;25.40;36.00;;;;;;5016882;28;20463;-79
2021/07/07 11:31:05;;;;;;;2.03;1.33;;;25.40;36.80;;;;;;5016456;28;20516;-78
2021/07/07 11:33:32;;;;;;;5.03;1.50;;;25.50;37.20;;;;;;5017743;28;20551;-78
2021/07/07 11:35:59;;;;;;;2.63;1.60;;;25.70;35.40;;;;;;5017794;28;20427;-78
2021/07/07 11:38:27;;;;;;;3.67;1.27;;;25.60;35.80;;;;;;5019920;28;20492;-78
2021/07/07 11:40:56;;;;;;;4.03;1.77;;;25.00;36.30;;;;;;5026087;28;20450;-78
2021/07/07 11:43:27;;;;;;;3.13;1.43;;;24.80;36.50;;;;;;5029120;28;20462;-78
2021/07/07 11:45:58;;;;;;;4.03;1.37;;;24.90;37.70;;;;;;5034950;28;20516;-78
2021/07/07 11:48:30;;;;;;;4.10;1.40;;;25.30;35.30;;;;;;5035981;28;20476;-78
2021/07/07 11:50:59;;;;;;;2.10;1.20;;;25.40;35.50;;;;;;5035080;28;20487;-79
2021/07/07 11:53:38;;;;;;;3.97;1.60;;;25.60;33.50;;;;;;5036804;28;20880;-79
2021/07/07 11:56:07;;;;;;;7.50;2.00;;;25.60;33.50;;;;;;5032588;28;20935;-78
2021/07/07 11:58:43;;;;;;;5.20;1.50;;;25.30;31.90;;;;;;5038247;28;20470;-79
2021/07/07 12:01:15;;;;;;;4.40;1.53;;;25.00;30.90;;;;;;5038573;28;20507;-78
2021/07/07 12:03:42;;;;;;;3.00;1.33;;;24.70;32.80;;;;;;5037386;28;20427;-79
2021/07/07 12:06:11;;;;;;;3.93;2.10;;;24.90;33.00;;;;;;5037112;28;20429;-79
2021/07/07 12:08:40;;;;;;;1.43;1.30;;;24.90;33.00;;;;;;5035940;28;20464;-78
2021/07/07 12:11:14;;;;;;;1.87;1.10;;;25.00;33.10;;;;;;5019535;28;21099;-78
2021/07/07 12:13:44;;;;;;;3.17;1.33;;;25.20;33.20;;;;;;5021822;28;20481;-77
2021/07/07 12:16:32;;;;;;;3.10;1.50;;;25.30;33.30;;;;;;5030895;28;20451;-78
2021/07/07 12:19:01;;;;;;;3.90;1.47;;;25.10;33.20;;;;;;5025683;28;20445;-78
2021/07/07 12:21:44;;;;;;;3.07;1.40;;;24.90;34.20;;;;;;5031303;28;20463;-78
2021/07/07 12:24:14;;;;;;;5.30;1.60;;;25.20;34.50;;;;;;5021102;28;20447;-79
2021/07/07 12:26:43;;;;;;;6.40;1.70;;;25.80;33.70;;;;;;5025713;28;20781;-78
2021/07/07 12:29:17;;;;;;;2.90;1.40;;;26.00;33.90;;;;;;5021477;28;20469;-79
2021/07/07 12:31:48;;;;;;;2.70;1.20;;;26.00;33.90;;;;;;5018258;28;20510;-78
2021/07/07 12:34:19;;;;;;;2.90;1.53;;;26.00;32.80;;;;;;5018390;28;20444;-78
2021/07/07 12:36:51;;;;;;;3.40;1.30;;;25.70;33.60;;;;;;5021282;28;20435;-79
2021/07/07 12:39:20;;;;;;;3.13;1.37;;;25.50;33.90;;;;;;5010913;28;20554;-79
2021/07/07 12:41:50;;;;;;;3.20;1.57;;;25.00;34.10;;;;;;5026534;28;20451;-78
2021/07/07 12:44:35;;;;;;;6.17;1.60;;;24.50;35.80;;;;;;5030746;28;20455;-79
2021/07/07 12:47:04;;;;;;;4.27;1.13;;;24.20;36.60;;;;;;5035427;28;20450;-79
2021/07/07 12:49:39;;;;;;;2.07;1.10;;;24.10;37.40;;;;;;5035470;28;20462;-79
2021/07/07 12:52:21;;;;;;;4.33;1.53;;;24.20;36.90;;;;;;5037308;28;20545;-78
2021/07/07 12:55:05;;;;;;;2.67;1.60;;;24.50;37.20;;;;;;5031491;28;20458;-77
2021/07/07 12:57:55;;;;;;;3.03;1.27;;;24.60;35.40;;;;;;5019757;28;20447;-78